Time;durP1;ratioP1;P1;durP2;ratioP2;P2;SDS_P1;SDS_P2;PMS_P1;PMS_P2;Temp;Humidity;BMP_temperature;BMP_pressure;BME280_temperature;BME280_humidity;BME280_pressure;Samples;Min_cycle;Max_cycle;Signal;HPM_P1;HPM_P2
2023/09/14 00:05:58;;;;;;;6.88;2.78;;;;;;;22.02;100.00;101108.91;20932901;28;20556;-73
2023/09/14 00:16:20;;;;;;;9.95;3.58;;;;;;;21.94;100.00;101099.25;20917335;28;20044;-73
2023/09/14 00:26:44;;;;;;;9.68;3.03;;;;;;;21.88;100.00;101081.47;20916222;28;20508;-73
2023/09/14 00:37:07;;;;;;;9.85;3.20;;;;;;;21.78;100.00;101088.00;20929717;28;20048;-73
2023/09/14 00:47:32;;;;;;;10.70;3.30;;;;;;;21.67;100.00;101077.50;20914089;28;20132;-73
2023/09/14 00:57:56;;;;;;;8.05;3.00;;;;;;;21.66;100.00;101070.38;20899793;28;20060;-73
2023/09/14 01:08:20;;;;;;;12.88;3.03;;;;;;;21.56;100.00;101074.22;20914192;28;20044;-73
2023/09/14 01:18:48;;;;;;;7.45;2.95;;;;;;;21.54;100.00;101072.47;20926559;28;20087;-73
2023/09/14 01:29:12;;;;;;;9.40;3.53;;;;;;;21.46;100.00;101078.06;20925968;28;20406;-73
2023/09/14 01:39:36;;;;;;;13.85;3.00;;;;;;;21.47;100.00;101069.94;20924995;28;20144;-74
2023/09/14 01:50:00;;;;;;;6.45;2.58;;;;;;;21.45;100.00;101078.97;20883419;28;20047;-73
2023/09/14 02:00:26;;;;;;;9.45;3.13;;;;;;;21.42;100.00;101082.59;20922653;28;20053;-73
2023/09/14 02:10:50;;;;;;;10.30;3.05;;;;;;;21.53;100.00;101081.50;20881635;28;20052;-73
2023/09/14 02:21:12;;;;;;;10.13;3.05;;;;;;;21.54;100.00;101088.59;20894931;28;20053;-73
2023/09/14 02:31:37;;;;;;;9.93;3.50;;;;;;;21.58;100.00;101079.56;20880110;28;20052;-73
2023/09/14 02:42:00;;;;;;;10.70;3.50;;;;;;;21.58;100.00;101084.94;20920808;28;20053;-73
2023/09/14 02:52:25;;;;;;;9.48;3.08;;;;;;;21.60;100.00;101075.00;20894753;28;20053;-74
2023/09/14 03:02:47;;;;;;;7.20;3.08;;;;;;;21.54;100.00;101077.84;20879354;28;20152;-73
2023/09/14 03:13:11;;;;;;;7.25;3.53;;;;;;;21.40;100.00;101083.56;20895546;28;20401;-75
2023/09/14 03:23:34;;;;;;;11.27;3.30;;;;;;;21.40;100.00;101094.31;20893452;28;20194;-74
2023/09/14 03:33:58;;;;;;;15.80;3.50;;;;;;;21.40;100.00;101091.63;20893950;28;20048;-73
2023/09/14 03:44:21;;;;;;;8.57;3.45;;;;;;;21.41;100.00;101101.44;20905654;28;20131;-74
2023/09/14 03:54:45;;;;;;;6.78;3.28;;;;;;;21.45;100.00;101090.63;20891862;28;20385;-74
2023/09/14 04:05:15;;;;;;;7.47;3.00;;;;;;;21.47;100.00;101096.81;20919201;28;20041;-73
2023/09/14 04:15:40;;;;;;;10.80;2.85;;;;;;;21.46;100.00;101115.69;20918049;28;20270;-73
2023/09/14 04:26:03;;;;;;;6.72;2.97;;;;;;;21.88;100.00;101119.09;20916651;28;20048;-74
2023/09/14 04:36:30;;;;;;;12.15;3.53;;;;;;;22.27;100.00;101127.97;20916547;28;20053;-74
2023/09/14 04:46:53;;;;;;;9.90;3.15;;;;;;;22.72;100.00;101133.91;20905787;28;20052;-74
2023/09/14 04:57:17;;;;;;;7.82;2.75;;;;;;;23.12;100.00;101141.72;20885077;28;20551;-74
2023/09/14 05:07:42;;;;;;;7.20;3.03;;;;;;;23.62;100.00;101133.94;20884210;28;20049;-73
2023/09/14 05:18:08;;;;;;;9.98;2.78;;;;;;;24.11;100.00;101139.44;20878434;28;20073;-74
2023/09/14 05:28:32;;;;;;;5.55;2.47;;;;;;;24.07;100.00;101135.09;20883103;28;20099;-73
2023/09/14 05:38:57;;;;;;;7.10;2.35;;;;;;;24.90;100.00;101139.34;20896171;28;20505;-74
2023/09/14 05:49:20;;;;;;;10.10;2.45;;;;;;;25.71;100.00;101128.09;20880963;28;20045;-74
2023/09/14 05:59:44;;;;;;;8.85;2.42;;;;;;;26.11;100.00;101130.91;20867800;28;20049;-74
2023/09/14 06:10:08;;;;;;;12.02;2.60;;;;;;;26.86;100.00;101133.00;20875721;28;20144;-74
2023/09/14 06:20:34;;;;;;;8.15;2.60;;;;;;;27.99;100.00;101133.91;20918296;28;20049;-74
2023/09/14 06:30:58;;;;;;;9.55;2.38;;;;;;;28.45;100.00;101125.16;20894155;28;20596;-74
2023/09/14 06:41:23;;;;;;;10.30;2.20;;;;;;;29.12;95.71;101117.94;20894448;28;20953;-74
2023/09/14 06:51:45;;;;;;;6.70;2.05;;;;;;;29.59;88.55;101116.16;20916832;28;20071;-75
2023/09/14 07:02:10;;;;;;;6.43;1.83;;;;;;;29.89;81.49;101118.03;20937058;28;20179;-75
2023/09/14 07:12:32;;;;;;;6.68;2.22;;;;;;;30.17;75.83;101126.38;20923258;28;20045;-75
2023/09/14 07:22:57;;;;;;;11.93;3.38;;;;;;;30.38;72.49;101135.97;20919322;28;20064;-75
2023/09/14 07:33:20;;;;;;;9.88;2.55;;;;;;;30.56;69.98;101150.34;20933485;28;20048;-74
2023/09/14 07:43:44;;;;;;;7.05;2.00;;;;;;;30.86;65.86;101151.16;20933402;28;20053;-74
2023/09/14 07:54:06;;;;;;;8.82;2.50;;;;;;;31.11;64.69;101157.84;20932399;28;20105;-75
2023/09/14 08:04:31;;;;;;;7.60;2.17;;;;;;;31.54;64.03;101151.38;20930821;28;20049;-74
2023/09/14 08:14:53;;;;;;;8.20;2.15;;;;;;;31.39;61.70;101154.19;20932391;28;20527;-74
2023/09/14 08:25:17;;;;;;;11.32;2.58;;;;;;;31.56;59.38;101138.50;20916974;28;20712;-74
2023/09/14 08:35:41;;;;;;;8.35;1.90;;;;;;;32.20;53.98;101163.41;20931163;28;20393;-75
2023/09/14 08:46:08;;;;;;;7.72;2.33;;;;;;;32.52;49.46;101139.31;20930513;28;20071;-74
2023/09/14 08:56:33;;;;;;;4.22;2.03;;;;;;;32.78;48.97;101146.59;20929191;28;20222;-74
2023/09/14 09:06:58;;;;;;;6.10;1.90;;;;;;;33.05;46.01;101133.66;20918525;28;20080;-74
2023/09/14 09:17:21;;;;;;;5.63;2.28;;;;;;;33.38;44.45;101133.09;20896847;28;20056;-74
2023/09/14 09:27:45;;;;;;;7.78;2.20;;;;;;;33.77;42.81;101142.09;20896878;28;20127;-74
2023/09/14 09:38:14;;;;;;;7.80;2.17;;;;;;;33.93;42.56;101138.09;20883880;28;20056;-74
2023/09/14 09:48:38;;;;;;;6.80;2.13;;;;;;;34.01;41.77;101135.63;20900722;28;20118;-74
2023/09/14 09:59:04;;;;;;;7.20;2.10;;;;;;;34.16;41.67;101136.31;20888585;28;20052;-74
2023/09/14 10:09:34;;;;;;;6.43;2.30;;;;;;;34.32;41.76;101120.47;20878092;28;20080;-75
2023/09/14 10:19:58;;;;;;;7.82;2.72;;;;;;;34.41;41.44;101118.84;20887600;28;20501;-74
2023/09/14 10:30:22;;;;;;;5.63;2.03;;;;;;;34.21;41.23;101119.50;20866716;28;20053;-74
2023/09/14 10:40:46;;;;;;;9.23;2.50;;;;;;;33.66;41.90;101112.75;20897519;28;20048;-73
2023/09/14 10:51:13;;;;;;;9.43;2.42;;;;;;;33.15;41.35;101104.63;20910181;28;20037;-74
2023/09/14 11:01:46;;;;;;;6.35;1.98;;;;;;;33.16;41.78;101108.25;20888643;28;20130;-74
2023/09/14 11:12:22;;;;;;;5.75;1.90;;;;;;;32.88;40.17;101087.50;20905523;28;20047;-74
2023/09/14 11:22:44;;;;;;;8.75;2.15;;;;;;;32.53;38.99;101069.97;20888447;28;20084;-74
2023/09/14 11:33:10;;;;;;;6.22;2.10;;;;;;;32.49;40.87;101073.91;20904584;28;20056;-74
2023/09/14 11:43:38;;;;;;;10.63;2.43;;;;;;;32.35;41.65;101073.03;20890234;28;20052;-74
2023/09/14 11:54:02;;;;;;;5.25;2.47;;;;;;;32.20;41.92;101068.63;20901944;28;20053;-74
2023/09/14 12:04:27;;;;;;;5.35;2.38;;;;;;;32.03;43.54;101060.72;20926402;28;20048;-74
2023/09/14 12:14:51;;;;;;;7.63;2.42;;;;;;;31.99;44.70;101059.16;20904443;28;20435;-74
2023/09/14 12:25:15;;;;;;;10.20;2.65;;;;;;;31.73;46.74;101052.75;20930385;28;20143;-74
2023/09/14 12:35:44;;;;;;;4.90;2.30;;;;;;;31.53;47.86;101053.16;20931697;28;20041;-74
2023/09/14 12:46:07;;;;;;;5.82;2.65;;;;;;;31.40;52.09;101044.94;20929799;28;20803;-74
2023/09/14 12:56:32;;;;;;;10.55;2.60;;;;;;;31.16;55.56;101038.38;20928983;28;20041;-74
2023/09/14 13:06:56;;;;;;;8.88;2.53;;;;;;;30.73;61.13;101035.66;20928750;28;20053;-74
2023/09/14 13:17:22;;;;;;;9.15;2.72;;;;;;;30.64;63.90;101036.25;20927374;28;20053;-74
2023/09/14 13:27:45;;;;;;;7.20;2.60;;;;;;;30.55;65.36;101025.94;20926639;28;20107;-73
2023/09/14 13:38:09;;;;;;;10.20;3.05;;;;;;;30.35;69.42;101029.00;20926529;28;20049;-74
2023/09/14 13:48:32;;;;;;;10.45;3.25;;;;;;;30.07;71.05;101017.06;20838794;28;20575;-74
2023/09/14 13:58:57;;;;;;;7.20;2.60;;;;;;;29.91;69.19;101010.81;20813910;28;20111;-74
2023/09/14 14:09:21;;;;;;;10.43;3.30;;;;;;;30.18;64.20;101019.16;20842440;28;20456;-74
2023/09/14 14:19:45;;;;;;;4.55;2.40;;;;;;;29.95;62.55;101016.94;20813608;28;20060;-73
2023/09/14 14:30:09;;;;;;;11.00;2.80;;;;;;;29.81;60.78;101016.88;20812886;28;20056;-74
2023/09/14 14:40:33;;;;;;;6.05;2.38;;;;;;;29.33;58.68;101010.63;20849063;28;20045;-74
2023/09/14 14:50:59;;;;;;;7.47;2.40;;;;;;;29.00;57.82;101008.03;20923825;28;20520;-74
2023/09/14 15:01:23;;;;;;;8.95;2.80;;;;;;;28.66;59.42;101002.69;20907903;28;20049;-74
2023/09/14 15:11:46;;;;;;;6.18;2.50;;;;;;;28.33;61.01;101009.00;20929070;28;20419;-73
2023/09/14 15:22:10;;;;;;;6.20;2.42;;;;;;;28.07;63.61;101017.66;20935938;28;20455;-74
2023/09/14 15:32:33;;;;;;;7.20;2.90;;;;;;;27.81;62.93;101023.56;20933997;28;20053;-74
2023/09/14 15:42:57;;;;;;;8.15;3.28;;;;;;;27.72;67.25;101014.91;20877209;28;20064;-74
2023/09/14 15:53:21;;;;;;;8.07;3.40;;;;;;;27.71;71.62;101012.28;20903792;28;20413;-73
2023/09/14 16:03:46;;;;;;;8.38;2.85;;;;;;;27.52;80.47;101023.19;20896206;28;20040;-74
2023/09/14 16:14:10;;;;;;;9.98;3.53;;;;;;;27.35;83.36;101015.00;20884640;28;20045;-73
2023/09/14 16:24:34;;;;;;;7.78;3.53;;;;;;;27.07;88.13;101023.59;20884989;28;20064;-74
2023/09/14 16:34:57;;;;;;;9.13;3.92;;;;;;;26.80;93.10;101033.03;20883754;28;20589;-74
2023/09/14 16:45:21;;;;;;;10.85;3.78;;;;;;;26.61;94.59;101021.28;20875445;28;20064;-74
2023/09/14 16:55:43;;;;;;;11.00;3.80;;;;;;;26.26;98.82;101039.16;20893011;28;20052;-74
2023/09/14 17:06:08;;;;;;;10.70;3.85;;;;;;;26.01;100.00;101040.19;20880305;28;20060;-74
2023/09/14 17:16:30;;;;;;;11.18;4.03;;;;;;;25.74;100.00;101041.41;20905426;28;20057;-74
2023/09/14 17:26:55;;;;;;;9.70;4.00;;;;;;;25.49;100.00;101043.34;20865695;28;20602;-74
2023/09/14 17:37:17;;;;;;;9.88;3.33;;;;;;;25.28;100.00;101048.69;20877987;28;20041;-74
2023/09/14 17:47:42;;;;;;;9.45;4.07;;;;;;;25.17;100.00;101060.88;20880902;28;20048;-74
2023/09/14 17:58:06;;;;;;;9.63;3.97;;;;;;;25.05;100.00;101075.75;20880863;28;20057;-74
2023/09/14 18:08:30;;;;;;;9.05;3.72;;;;;;;24.79;100.00;101078.56;20881130;28;20068;-73
2023/09/14 18:18:52;;;;;;;11.05;3.83;;;;;;;24.57;100.00;101084.75;20899359;28;20052;-73
2023/09/14 18:29:16;;;;;;;8.38;4.18;;;;;;;24.31;100.00;101078.53;20884279;28;20041;-73
2023/09/14 18:39:39;;;;;;;12.43;3.63;;;;;;;24.05;100.00;101069.53;20884748;28;20056;-73
2023/09/14 18:50:03;;;;;;;8.07;3.58;;;;;;;24.05;100.00;101068.63;20905329;28;20080;-73
2023/09/14 19:00:26;;;;;;;8.68;3.45;;;;;;;23.88;100.00;101071.03;20908158;28;20051;-73
2023/09/14 19:10:54;;;;;;;10.57;3.75;;;;;;;23.72;99.06;101074.25;20930488;28;20049;-73
2023/09/14 19:21:17;;;;;;;;;;;;;;;23.29;100.00;101079.25;20881794;28;20048;-74
2023/09/14 19:31:41;;;;;;;7.35;3.15;;;;;;;23.15;98.08;101077.00;20900608;28;19921;-73
2023/09/14 19:42:04;;;;;;;9.27;3.33;;;;;;;22.89;99.51;101076.91;20887824;28;20559;-73
2023/09/14 19:52:30;;;;;;;8.93;3.40;;;;;;;22.75;99.61;101073.75;20920174;28;20393;-74
2023/09/14 20:02:53;;;;;;;12.00;3.63;;;;;;;22.67;98.60;101079.31;20879493;28;20052;-74
2023/09/14 20:13:18;;;;;;;9.68;3.75;;;;;;;22.58;98.25;101093.03;20921942;28;20672;-73
2023/09/14 20:23:41;;;;;;;6.20;3.28;;;;;;;22.37;98.85;101086.47;20859447;28;20052;-74
2023/09/14 20:34:05;;;;;;;8.57;3.42;;;;;;;22.13;97.02;101073.66;20886762;28;21007;-73
2023/09/14 20:44:28;;;;;;;6.75;3.15;;;;;;;21.95;94.38;101066.94;20867794;28;20045;-73
2023/09/14 20:54:53;;;;;;;9.45;3.20;;;;;;;22.01;89.05;101068.63;20824144;28;20057;-74
2023/09/14 21:05:16;;;;;;;8.85;3.30;;;;;;;21.56;87.59;101068.84;20873569;28;20409;-73
2023/09/14 21:15:40;;;;;;;9.20;2.60;;;;;;;21.58;85.18;101072.38;20882660;28;20048;-73
2023/09/14 21:26:03;;;;;;;5.57;2.90;;;;;;;21.56;83.96;101076.91;20911060;28;20057;-73
2023/09/14 21:36:27;;;;;;;10.23;2.97;;;;;;;21.21;85.36;101077.75;20884935;28;20517;-73
2023/09/14 21:46:50;;;;;;;7.57;2.60;;;;;;;21.23;83.71;101070.53;20865161;28;20059;-72
2023/09/14 21:57:16;;;;;;;7.60;2.40;;;;;;;21.12;84.53;101075.25;20872406;28;20102;-73
2023/09/14 22:07:39;;;;;;;9.10;2.80;;;;;;;21.06;84.74;101059.28;20894183;28;20060;-72
2023/09/14 22:18:05;;;;;;;8.70;3.10;;;;;;;20.79;85.77;101046.47;20894311;28;20060;-72
2023/09/14 22:28:27;;;;;;;5.13;2.00;;;;;;;20.61;84.91;101042.38;20896188;28;20099;-73
2023/09/14 22:38:52;;;;;;;10.15;2.55;;;;;;;20.59;83.21;101047.78;20907754;28;20099;-73
2023/09/14 22:49:14;;;;;;;9.18;2.60;;;;;;;20.59;82.72;101039.72;20896529;28;20065;-72
2023/09/14 22:59:38;;;;;;;9.88;2.47;;;;;;;20.37;81.18;101027.66;20911901;28;20088;-73
2023/09/14 23:10:02;;;;;;;7.70;2.83;;;;;;;20.50;78.48;101028.28;20891910;28;20049;-74
2023/09/14 23:20:27;;;;;;;7.88;2.45;;;;;;;20.14;80.95;101025.44;20931679;28;20061;-73
2023/09/14 23:30:50;;;;;;;9.45;2.60;;;;;;;20.15;82.12;101010.22;20878191;28;20107;-74
2023/09/14 23:41:15;;;;;;;6.25;2.33;;;;;;;19.96;83.80;101023.06;20893336;28;20052;-73
2023/09/14 23:51:39;;;;;;;7.68;2.83;;;;;;;19.86;84.15;101019.69;20869207;28;20041;-73
